sensor_id;sensor_type;location;lat;lon;timestamp;P1;durP1;ratioP1;P2;durP2;ratioP2
1507;SDS011;745;48.586;10.032;2023-08-12T00:00:54;6.07;;;5.47;;
1507;SDS011;745;48.586;10.032;2023-08-12T00:02:55;8.03;;;5.30;;
1507;SDS011;745;48.586;10.032;2023-08-12T00:04:55;5.87;;;5.23;;
1507;SDS011;745;48.586;10.032;2023-08-12T00:06:56;6.80;;;5.30;;
1507;SDS011;745;48.586;10.032;2023-08-12T00:08:56;5.70;;;5.20;;
1507;SDS011;745;48.586;10.032;2023-08-12T00:10:57;5.00;;;4.60;;
1507;SDS011;745;48.586;10.032;2023-08-12T00:12:57;5.03;;;4.53;;
1507;SDS011;745;48.586;10.032;2023-08-12T00:14:58;5.50;;;5.00;;
1507;SDS011;745;48.586;10.032;2023-08-12T00:16:58;5.90;;;5.30;;
1507;SDS011;745;48.586;10.032;2023-08-12T00:18:59;5.57;;;5.10;;
1507;SDS011;745;48.586;10.032;2023-08-12T00:20:59;5.90;;;5.30;;
1507;SDS011;745;48.586;10.032;2023-08-12T00:22:59;6.37;;;5.30;;
1507;SDS011;745;48.586;10.032;2023-08-12T00:25:00;5.60;;;5.10;;
1507;SDS011;745;48.586;10.032;2023-08-12T00:27:01;5.47;;;4.97;;
1507;SDS011;745;48.586;10.032;2023-08-12T00:29:01;5.97;;;5.37;;
1507;SDS011;745;48.586;10.032;2023-08-12T00:31:02;5.40;;;4.93;;
1507;SDS011;745;48.586;10.032;2023-08-12T00:33:03;5.77;;;5.17;;
1507;SDS011;745;48.586;10.032;2023-08-12T00:35:03;5.63;;;5.20;;
1507;SDS011;745;48.586;10.032;2023-08-12T00:37:04;6.20;;;5.70;;
1507;SDS011;745;48.586;10.032;2023-08-12T00:39:04;5.67;;;5.17;;
1507;SDS011;745;48.586;10.032;2023-08-12T00:41:05;5.70;;;5.10;;
1507;SDS011;745;48.586;10.032;2023-08-12T00:43:05;5.80;;;5.20;;
1507;SDS011;745;48.586;10.032;2023-08-12T00:45:08;5.67;;;5.17;;
1507;SDS011;745;48.586;10.032;2023-08-12T00:47:09;5.70;;;5.30;;
1507;SDS011;745;48.586;10.032;2023-08-12T00:49:10;5.30;;;4.80;;
1507;SDS011;745;48.586;10.032;2023-08-12T00:51:11;5.90;;;5.40;;
1507;SDS011;745;48.586;10.032;2023-08-12T00:53:12;5.50;;;5.00;;
1507;SDS011;745;48.586;10.032;2023-08-12T00:55:13;6.00;;;5.20;;
1507;SDS011;745;48.586;10.032;2023-08-12T00:57:13;5.47;;;4.97;;
1507;SDS011;745;48.586;10.032;2023-08-12T00:59:13;6.37;;;5.87;;
1507;SDS011;745;48.586;10.032;2023-08-12T01:01:14;5.60;;;5.10;;
1507;SDS011;745;48.586;10.032;2023-08-12T01:03:15;6.03;;;4.70;;
1507;SDS011;745;48.586;10.032;2023-08-12T01:05:15;5.43;;;4.93;;
1507;SDS011;745;48.586;10.032;2023-08-12T01:07:16;5.43;;;4.93;;
1507;SDS011;745;48.586;10.032;2023-08-12T01:09:17;6.03;;;5.53;;
1507;SDS011;745;48.586;10.032;2023-08-12T01:13:29;5.93;;;5.40;;
1507;SDS011;745;48.586;10.032;2023-08-12T01:15:33;6.03;;;5.43;;
1507;SDS011;745;48.586;10.032;2023-08-12T01:17:35;5.77;;;5.27;;
1507;SDS011;745;48.586;10.032;2023-08-12T01:19:37;4.93;;;4.50;;
1507;SDS011;745;48.586;10.032;2023-08-12T01:21:40;5.63;;;5.13;;
1507;SDS011;745;48.586;10.032;2023-08-12T01:23:42;6.80;;;5.32;;
1507;SDS011;745;48.586;10.032;2023-08-12T01:25:43;5.22;;;4.80;;
1507;SDS011;745;48.586;10.032;2023-08-12T01:27:43;5.53;;;5.03;;
1507;SDS011;745;48.586;10.032;2023-08-12T01:29:45;5.63;;;5.13;;
1507;SDS011;745;48.586;10.032;2023-08-12T01:31:51;5.82;;;5.32;;
1507;SDS011;745;48.586;10.032;2023-08-12T01:33:58;5.20;;;4.80;;
1507;SDS011;745;48.586;10.032;2023-08-12T01:36:12;5.55;;;4.95;;
1507;SDS011;745;48.586;10.032;2023-08-12T01:38:16;6.05;;;5.47;;
1507;SDS011;745;48.586;10.032;2023-08-12T01:40:18;5.82;;;5.32;;
1507;SDS011;745;48.586;10.032;2023-08-12T01:42:19;6.13;;;5.63;;
1507;SDS011;745;48.586;10.032;2023-08-12T01:44:19;6.67;;;5.60;;
1507;SDS011;745;48.586;10.032;2023-08-12T01:46:21;5.73;;;5.07;;
1507;SDS011;745;48.586;10.032;2023-08-12T01:48:21;6.55;;;5.65;;
1507;SDS011;745;48.586;10.032;2023-08-12T01:50:23;5.80;;;5.30;;
1507;SDS011;745;48.586;10.032;2023-08-12T01:52:23;6.37;;;5.77;;
1507;SDS011;745;48.586;10.032;2023-08-12T01:54:24;5.50;;;5.03;;
1507;SDS011;745;48.586;10.032;2023-08-12T01:56:24;4.97;;;4.57;;
1507;SDS011;745;48.586;10.032;2023-08-12T01:58:25;5.67;;;5.10;;
1507;SDS011;745;48.586;10.032;2023-08-12T02:00:26;5.57;;;5.18;;
1507;SDS011;745;48.586;10.032;2023-08-12T02:02:26;5.43;;;5.03;;
1507;SDS011;745;48.586;10.032;2023-08-12T02:04:27;5.73;;;5.23;;
1507;SDS011;745;48.586;10.032;2023-08-12T02:06:27;6.10;;;5.60;;
1507;SDS011;745;48.586;10.032;2023-08-12T02:08:27;6.20;;;5.60;;
1507;SDS011;745;48.586;10.032;2023-08-12T02:10:28;6.53;;;5.77;;
1507;SDS011;745;48.586;10.032;2023-08-12T02:12:28;5.23;;;4.73;;
1507;SDS011;745;48.586;10.032;2023-08-12T02:14:28;5.87;;;5.33;;
1507;SDS011;745;48.586;10.032;2023-08-12T02:16:29;5.80;;;5.30;;
1507;SDS011;745;48.586;10.032;2023-08-12T02:18:29;6.97;;;5.87;;
1507;SDS011;745;48.586;10.032;2023-08-12T02:20:29;5.90;;;5.23;;
1507;SDS011;745;48.586;10.032;2023-08-12T02:22:30;6.50;;;5.90;;
1507;SDS011;745;48.586;10.032;2023-08-12T02:24:30;6.73;;;6.13;;
1507;SDS011;745;48.586;10.032;2023-08-12T02:26:30;6.23;;;5.63;;
1507;SDS011;745;48.586;10.032;2023-08-12T02:28:31;5.73;;;5.23;;
1507;SDS011;745;48.586;10.032;2023-08-12T02:30:31;5.90;;;5.40;;
1507;SDS011;745;48.586;10.032;2023-08-12T02:32:31;6.73;;;6.13;;
1507;SDS011;745;48.586;10.032;2023-08-12T02:34:32;8.63;;;6.40;;
1507;SDS011;745;48.586;10.032;2023-08-12T02:36:32;7.00;;;6.40;;
1507;SDS011;745;48.586;10.032;2023-08-12T02:38:32;6.03;;;5.43;;
1507;SDS011;745;48.586;10.032;2023-08-12T02:40:33;6.37;;;5.77;;
1507;SDS011;745;48.586;10.032;2023-08-12T02:42:33;6.87;;;6.27;;
1507;SDS011;745;48.586;10.032;2023-08-12T02:44:34;7.57;;;6.87;;
1507;SDS011;745;48.586;10.032;2023-08-12T02:46:34;7.60;;;7.00;;
1507;SDS011;745;48.586;10.032;2023-08-12T02:48:35;7.43;;;6.77;;
1507;SDS011;745;48.586;10.032;2023-08-12T02:50:36;7.35;;;6.65;;
1507;SDS011;745;48.586;10.032;2023-08-12T02:52:37;10.40;;;7.90;;
1507;SDS011;745;48.586;10.032;2023-08-12T02:54:37;7.33;;;6.63;;
1507;SDS011;745;48.586;10.032;2023-08-12T02:56:38;7.55;;;6.95;;
1507;SDS011;745;48.586;10.032;2023-08-12T02:58:38;7.43;;;6.60;;
1507;SDS011;745;48.586;10.032;2023-08-12T03:00:42;7.13;;;6.43;;
1507;SDS011;745;48.586;10.032;2023-08-12T03:02:45;7.38;;;6.68;;
1507;SDS011;745;48.586;10.032;2023-08-12T03:04:45;6.63;;;6.10;;
1507;SDS011;745;48.586;10.032;2023-08-12T03:06:45;6.40;;;5.80;;
1507;SDS011;745;48.586;10.032;2023-08-12T03:08:46;6.63;;;6.00;;
1507;SDS011;745;48.586;10.032;2023-08-12T03:10:46;7.30;;;6.60;;
1507;SDS011;745;48.586;10.032;2023-08-12T03:12:47;6.97;;;6.37;;
1507;SDS011;745;48.586;10.032;2023-08-12T03:14:47;6.83;;;6.23;;
1507;SDS011;745;48.586;10.032;2023-08-12T03:16:47;6.40;;;5.80;;
1507;SDS011;745;48.586;10.032;2023-08-12T03:18:48;7.10;;;6.40;;
1507;SDS011;745;48.586;10.032;2023-08-12T03:20:48;5.97;;;5.47;;
1507;SDS011;745;48.586;10.032;2023-08-12T03:22:48;6.23;;;5.63;;
1507;SDS011;745;48.586;10.032;2023-08-12T03:24:49;5.60;;;5.20;;
1507;SDS011;745;48.586;10.032;2023-08-12T03:26:49;6.50;;;5.90;;
1507;SDS011;745;48.586;10.032;2023-08-12T03:28:49;5.63;;;5.03;;
1507;SDS011;745;48.586;10.032;2023-08-12T03:30:50;7.87;;;6.50;;
1507;SDS011;745;48.586;10.032;2023-08-12T03:32:51;6.07;;;5.47;;
1507;SDS011;745;48.586;10.032;2023-08-12T03:34:52;7.20;;;6.20;;
1507;SDS011;745;48.586;10.032;2023-08-12T03:36:53;8.98;;;5.55;;
1507;SDS011;745;48.586;10.032;2023-08-12T03:38:54;5.97;;;5.37;;
1507;SDS011;745;48.586;10.032;2023-08-12T03:40:54;6.47;;;5.87;;
1507;SDS011;745;48.586;10.032;2023-08-12T03:42:54;7.40;;;6.70;;
1507;SDS011;745;48.586;10.032;2023-08-12T03:44:55;6.57;;;5.87;;
1507;SDS011;745;48.586;10.032;2023-08-12T03:46:55;7.80;;;6.73;;
1507;SDS011;745;48.586;10.032;2023-08-12T03:48:55;7.53;;;6.83;;
1507;SDS011;745;48.586;10.032;2023-08-12T03:50:56;6.73;;;6.00;;
1507;SDS011;745;48.586;10.032;2023-08-12T03:52:56;6.40;;;5.80;;
1507;SDS011;745;48.586;10.032;2023-08-12T03:54:57;7.30;;;6.60;;
1507;SDS011;745;48.586;10.032;2023-08-12T03:56:57;6.90;;;6.30;;
1507;SDS011;745;48.586;10.032;2023-08-12T03:58:57;7.30;;;6.50;;
1507;SDS011;745;48.586;10.032;2023-08-12T04:00:58;7.80;;;6.13;;
1507;SDS011;745;48.586;10.032;2023-08-12T04:02:58;6.40;;;5.73;;
1507;SDS011;745;48.586;10.032;2023-08-12T04:04:58;6.57;;;5.97;;
1507;SDS011;745;48.586;10.032;2023-08-12T04:06:59;6.43;;;5.77;;
1507;SDS011;745;48.586;10.032;2023-08-12T04:09:00;6.57;;;6.00;;
1507;SDS011;745;48.586;10.032;2023-08-12T04:11:00;9.10;;;6.50;;
1507;SDS011;745;48.586;10.032;2023-08-12T04:13:01;7.10;;;6.50;;
1507;SDS011;745;48.586;10.032;2023-08-12T04:15:01;7.03;;;6.33;;
1507;SDS011;745;48.586;10.032;2023-08-12T04:17:04;7.13;;;6.40;;
1507;SDS011;745;48.586;10.032;2023-08-12T04:19:04;7.80;;;6.60;;
1507;SDS011;745;48.586;10.032;2023-08-12T04:21:04;6.93;;;6.30;;
1507;SDS011;745;48.586;10.032;2023-08-12T04:23:05;7.00;;;6.40;;
1507;SDS011;745;48.586;10.032;2023-08-12T04:25:05;7.00;;;6.37;;
1507;SDS011;745;48.586;10.032;2023-08-12T04:27:06;9.93;;;7.37;;
1507;SDS011;745;48.586;10.032;2023-08-12T04:29:06;7.13;;;6.43;;
1507;SDS011;745;48.586;10.032;2023-08-12T04:31:06;10.10;;;8.27;;
1507;SDS011;745;48.586;10.032;2023-08-12T04:33:08;7.30;;;6.60;;
1507;SDS011;745;48.586;10.032;2023-08-12T04:35:08;7.23;;;6.63;;
1507;SDS011;745;48.586;10.032;2023-08-12T04:37:09;8.83;;;7.93;;
1507;SDS011;745;48.586;10.032;2023-08-12T04:39:09;7.70;;;6.90;;
1507;SDS011;745;48.586;10.032;2023-08-12T04:41:10;6.93;;;6.33;;
1507;SDS011;745;48.586;10.032;2023-08-12T04:43:10;8.10;;;7.30;;
1507;SDS011;745;48.586;10.032;2023-08-12T04:45:11;7.83;;;7.13;;
1507;SDS011;745;48.586;10.032;2023-08-12T04:47:11;7.67;;;6.87;;
1507;SDS011;745;48.586;10.032;2023-08-12T04:49:11;7.77;;;7.13;;
1507;SDS011;745;48.586;10.032;2023-08-12T04:51:12;7.23;;;6.63;;
1507;SDS011;745;48.586;10.032;2023-08-12T04:53:12;7.77;;;7.07;;
1507;SDS011;745;48.586;10.032;2023-08-12T04:55:12;7.53;;;6.83;;
1507;SDS011;745;48.586;10.032;2023-08-12T04:57:13;10.90;;;8.33;;
1507;SDS011;745;48.586;10.032;2023-08-12T04:59:13;8.93;;;8.13;;
1507;SDS011;745;48.586;10.032;2023-08-12T05:01:14;8.30;;;7.50;;
1507;SDS011;745;48.586;10.032;2023-08-12T05:03:14;7.70;;;6.97;;
1507;SDS011;745;48.586;10.032;2023-08-12T05:05:14;9.70;;;8.73;;
1507;SDS011;745;48.586;10.032;2023-08-12T05:07:15;9.03;;;8.13;;
1507;SDS011;745;48.586;10.032;2023-08-12T05:09:16;7.73;;;7.00;;
1507;SDS011;745;48.586;10.032;2023-08-12T05:11:16;7.77;;;7.07;;
1507;SDS011;745;48.586;10.032;2023-08-12T05:13:16;8.13;;;7.33;;
1507;SDS011;745;48.586;10.032;2023-08-12T05:15:17;7.53;;;6.90;;
1507;SDS011;745;48.586;10.032;2023-08-12T05:17:17;7.93;;;7.13;;
1507;SDS011;745;48.586;10.032;2023-08-12T05:19:17;7.93;;;7.23;;
1507;SDS011;745;48.586;10.032;2023-08-12T05:21:18;8.20;;;7.07;;
1507;SDS011;745;48.586;10.032;2023-08-12T05:23:20;8.53;;;7.60;;
1507;SDS011;745;48.586;10.032;2023-08-12T05:25:20;8.60;;;7.80;;
1507;SDS011;745;48.586;10.032;2023-08-12T05:27:21;8.30;;;7.57;;
1507;SDS011;745;48.586;10.032;2023-08-12T05:29:21;9.70;;;8.70;;
1507;SDS011;745;48.586;10.032;2023-08-12T05:31:21;8.43;;;7.63;;
1507;SDS011;745;48.586;10.032;2023-08-12T05:33:22;7.60;;;6.90;;
1507;SDS011;745;48.586;10.032;2023-08-12T05:35:22;8.20;;;7.40;;
1507;SDS011;745;48.586;10.032;2023-08-12T05:37:23;7.77;;;6.90;;
1507;SDS011;745;48.586;10.032;2023-08-12T05:39:23;8.77;;;7.87;;
1507;SDS011;745;48.586;10.032;2023-08-12T05:41:24;8.30;;;7.53;;
1507;SDS011;745;48.586;10.032;2023-08-12T05:43:24;8.60;;;7.80;;
1507;SDS011;745;48.586;10.032;2023-08-12T05:45:24;8.33;;;7.40;;
1507;SDS011;745;48.586;10.032;2023-08-12T05:47:25;8.20;;;7.50;;
1507;SDS011;745;48.586;10.032;2023-08-12T05:49:25;8.27;;;7.50;;
1507;SDS011;745;48.586;10.032;2023-08-12T05:51:25;8.10;;;7.40;;
1507;SDS011;745;48.586;10.032;2023-08-12T05:53:26;7.90;;;7.20;;
1507;SDS011;745;48.586;10.032;2023-08-12T05:55:26;8.10;;;7.30;;
1507;SDS011;745;48.586;10.032;2023-08-12T05:57:27;8.20;;;7.50;;
1507;SDS011;745;48.586;10.032;2023-08-12T05:59:27;9.80;;;8.80;;
1507;SDS011;745;48.586;10.032;2023-08-12T06:01:27;9.03;;;8.13;;
1507;SDS011;745;48.586;10.032;2023-08-12T06:03:28;8.17;;;7.47;;
1507;SDS011;745;48.586;10.032;2023-08-12T06:05:28;7.93;;;7.23;;
1507;SDS011;745;48.586;10.032;2023-08-12T06:07:28;8.00;;;7.30;;
1507;SDS011;745;48.586;10.032;2023-08-12T06:09:28;7.43;;;6.80;;
1507;SDS011;745;48.586;10.032;2023-08-12T06:11:29;7.37;;;6.67;;
1507;SDS011;745;48.586;10.032;2023-08-12T06:13:29;7.40;;;6.70;;
1507;SDS011;745;48.586;10.032;2023-08-12T06:15:29;7.27;;;6.57;;
1507;SDS011;745;48.586;10.032;2023-08-12T06:17:30;7.13;;;6.50;;
1507;SDS011;745;48.586;10.032;2023-08-12T06:19:30;8.60;;;7.80;;
1507;SDS011;745;48.586;10.032;2023-08-12T06:21:30;7.80;;;7.07;;
1507;SDS011;745;48.586;10.032;2023-08-12T06:23:31;8.40;;;7.60;;
1507;SDS011;745;48.586;10.032;2023-08-12T06:25:31;7.43;;;6.73;;
1507;SDS011;745;48.586;10.032;2023-08-12T06:27:31;8.80;;;7.90;;
1507;SDS011;745;48.586;10.032;2023-08-12T06:29:32;8.07;;;7.40;;
1507;SDS011;745;48.586;10.032;2023-08-12T06:31:32;9.27;;;8.47;;
1507;SDS011;745;48.586;10.032;2023-08-12T06:33:32;8.70;;;7.90;;
1507;SDS011;745;48.586;10.032;2023-08-12T06:35:33;8.40;;;7.70;;
1507;SDS011;745;48.586;10.032;2023-08-12T06:37:33;11.23;;;9.20;;
1507;SDS011;745;48.586;10.032;2023-08-12T06:39:33;8.83;;;8.00;;
1507;SDS011;745;48.586;10.032;2023-08-12T06:41:34;10.03;;;9.07;;
1507;SDS011;745;48.586;10.032;2023-08-12T06:43:34;8.97;;;8.17;;
1507;SDS011;745;48.586;10.032;2023-08-12T06:45:35;8.20;;;7.50;;
1507;SDS011;745;48.586;10.032;2023-08-12T06:47:35;9.97;;;8.97;;
1507;SDS011;745;48.586;10.032;2023-08-12T06:49:36;9.60;;;8.70;;
1507;SDS011;745;48.586;10.032;2023-08-12T06:51:36;11.73;;;10.63;;
1507;SDS011;745;48.586;10.032;2023-08-12T06:53:38;10.77;;;9.67;;
1507;SDS011;745;48.586;10.032;2023-08-12T06:55:43;9.67;;;8.63;;
1507;SDS011;745;48.586;10.032;2023-08-12T06:57:45;11.70;;;8.83;;
1507;SDS011;745;48.586;10.032;2023-08-12T06:59:45;9.93;;;9.03;;
1507;SDS011;745;48.586;10.032;2023-08-12T07:01:45;9.43;;;8.63;;
1507;SDS011;745;48.586;10.032;2023-08-12T07:03:46;9.07;;;8.27;;
1507;SDS011;745;48.586;10.032;2023-08-12T07:05:46;11.07;;;9.03;;
1507;SDS011;745;48.586;10.032;2023-08-12T07:07:46;9.53;;;8.60;;
1507;SDS011;745;48.586;10.032;2023-08-12T07:09:47;9.43;;;8.57;;
1507;SDS011;745;48.586;10.032;2023-08-12T07:11:47;8.90;;;8.10;;
1507;SDS011;745;48.586;10.032;2023-08-12T07:13:47;9.03;;;8.17;;
1507;SDS011;745;48.586;10.032;2023-08-12T07:15:48;9.00;;;8.10;;
1507;SDS011;745;48.586;10.032;2023-08-12T07:17:48;8.90;;;8.10;;
1507;SDS011;745;48.586;10.032;2023-08-12T07:19:48;8.73;;;7.93;;
1507;SDS011;745;48.586;10.032;2023-08-12T07:21:49;8.47;;;7.67;;
1507;SDS011;745;48.586;10.032;2023-08-12T07:23:49;8.30;;;7.50;;
1507;SDS011;745;48.586;10.032;2023-08-12T07:25:49;9.53;;;8.07;;
1507;SDS011;745;48.586;10.032;2023-08-12T07:27:50;8.57;;;7.87;;
1507;SDS011;745;48.586;10.032;2023-08-12T07:29:50;8.80;;;7.90;;
1507;SDS011;745;48.586;10.032;2023-08-12T07:31:51;8.27;;;7.50;;
1507;SDS011;745;48.586;10.032;2023-08-12T07:33:52;8.27;;;7.47;;
1507;SDS011;745;48.586;10.032;2023-08-12T07:35:52;7.60;;;6.90;;
1507;SDS011;745;48.586;10.032;2023-08-12T07:37:53;9.90;;;9.10;;
1507;SDS011;745;48.586;10.032;2023-08-12T07:39:53;7.93;;;7.23;;
1507;SDS011;745;48.586;10.032;2023-08-12T07:41:53;8.47;;;7.77;;
1507;SDS011;745;48.586;10.032;2023-08-12T07:43:54;7.03;;;6.43;;
1507;SDS011;745;48.586;10.032;2023-08-12T07:45:54;7.93;;;7.13;;
1507;SDS011;745;48.586;10.032;2023-08-12T07:47:55;10.03;;;6.53;;
1507;SDS011;745;48.586;10.032;2023-08-12T07:49:55;7.83;;;7.00;;
1507;SDS011;745;48.586;10.032;2023-08-12T07:51:55;8.60;;;7.90;;
1507;SDS011;745;48.586;10.032;2023-08-12T07:53:56;8.03;;;7.30;;
1507;SDS011;745;48.586;10.032;2023-08-12T07:55:56;8.30;;;7.50;;
1507;SDS011;745;48.586;10.032;2023-08-12T07:57:56;7.60;;;6.93;;
1507;SDS011;745;48.586;10.032;2023-08-12T07:59:56;7.63;;;7.03;;
1507;SDS011;745;48.586;10.032;2023-08-12T08:01:57;7.13;;;6.53;;
1507;SDS011;745;48.586;10.032;2023-08-12T08:03:57;8.33;;;6.93;;
1507;SDS011;745;48.586;10.032;2023-08-12T08:05:57;7.33;;;6.73;;
1507;SDS011;745;48.586;10.032;2023-08-12T08:07:58;6.63;;;6.00;;
1507;SDS011;745;48.586;10.032;2023-08-12T08:09:58;9.50;;;6.87;;
1507;SDS011;745;48.586;10.032;2023-08-12T08:11:58;7.47;;;6.77;;
1507;SDS011;745;48.586;10.032;2023-08-12T08:14:00;7.83;;;7.13;;
1507;SDS011;745;48.586;10.032;2023-08-12T08:16:00;8.37;;;7.57;;
1507;SDS011;745;48.586;10.032;2023-08-12T08:18:01;7.30;;;6.60;;
1507;SDS011;745;48.586;10.032;2023-08-12T08:20:04;7.60;;;6.87;;
1507;SDS011;745;48.586;10.032;2023-08-12T08:22:05;7.57;;;6.87;;
1507;SDS011;745;48.586;10.032;2023-08-12T08:24:05;8.23;;;7.30;;
1507;SDS011;745;48.586;10.032;2023-08-12T08:26:06;7.83;;;7.10;;
1507;SDS011;745;48.586;10.032;2023-08-12T08:28:06;7.17;;;6.47;;
1507;SDS011;745;48.586;10.032;2023-08-12T08:30:07;6.47;;;5.97;;
1507;SDS011;745;48.586;10.032;2023-08-12T08:32:08;6.60;;;6.10;;
1507;SDS011;745;48.586;10.032;2023-08-12T08:34:09;8.43;;;6.43;;
1507;SDS011;745;48.586;10.032;2023-08-12T08:36:09;7.13;;;6.50;;
1507;SDS011;745;48.586;10.032;2023-08-12T08:38:10;6.07;;;5.57;;
1507;SDS011;745;48.586;10.032;2023-08-12T08:40:10;8.40;;;6.30;;
1507;SDS011;745;48.586;10.032;2023-08-12T08:42:11;6.80;;;6.17;;
1507;SDS011;745;48.586;10.032;2023-08-12T08:44:11;6.20;;;5.60;;
1507;SDS011;745;48.586;10.032;2023-08-12T08:46:16;8.70;;;6.70;;
1507;SDS011;745;48.586;10.032;2023-08-12T08:48:16;6.93;;;6.23;;
1507;SDS011;745;48.586;10.032;2023-08-12T08:50:17;7.17;;;6.37;;
1507;SDS011;745;48.586;10.032;2023-08-12T08:52:18;6.70;;;6.10;;
1507;SDS011;745;48.586;10.032;2023-08-12T08:54:19;6.53;;;5.93;;
1507;SDS011;745;48.586;10.032;2023-08-12T08:56:20;6.07;;;5.47;;
1507;SDS011;745;48.586;10.032;2023-08-12T08:58:20;7.83;;;6.20;;
1507;SDS011;745;48.586;10.032;2023-08-12T09:00:20;6.57;;;5.97;;
1507;SDS011;745;48.586;10.032;2023-08-12T09:02:21;7.83;;;6.40;;
1507;SDS011;745;48.586;10.032;2023-08-12T09:04:21;6.23;;;5.60;;
1507;SDS011;745;48.586;10.032;2023-08-12T09:06:26;6.90;;;6.30;;
1507;SDS011;745;48.586;10.032;2023-08-12T09:08:27;7.00;;;6.30;;
1507;SDS011;745;48.586;10.032;2023-08-12T09:10:29;6.23;;;5.70;;
1507;SDS011;745;48.586;10.032;2023-08-12T09:12:29;7.23;;;6.53;;
1507;SDS011;745;48.586;10.032;2023-08-12T09:14:31;6.83;;;5.70;;
1507;SDS011;745;48.586;10.032;2023-08-12T09:16:31;6.67;;;5.93;;
1507;SDS011;745;48.586;10.032;2023-08-12T09:18:32;6.97;;;6.27;;
1507;SDS011;745;48.586;10.032;2023-08-12T09:20:33;6.80;;;6.23;;
1507;SDS011;745;48.586;10.032;2023-08-12T09:22:33;6.83;;;6.23;;
1507;SDS011;745;48.586;10.032;2023-08-12T09:24:34;6.57;;;6.00;;
1507;SDS011;745;48.586;10.032;2023-08-12T09:26:34;6.90;;;6.30;;
1507;SDS011;745;48.586;10.032;2023-08-12T09:28:35;7.00;;;6.30;;
1507;SDS011;745;48.586;10.032;2023-08-12T09:30:36;6.47;;;5.97;;
1507;SDS011;745;48.586;10.032;2023-08-12T09:32:37;8.10;;;7.40;;
1507;SDS011;745;48.586;10.032;2023-08-12T09:34:59;7.13;;;6.53;;
1507;SDS011;745;48.586;10.032;2023-08-12T09:37:01;9.43;;;7.60;;
1507;SDS011;745;48.586;10.032;2023-08-12T09:39:06;9.13;;;8.03;;
1507;SDS011;745;48.586;10.032;2023-08-12T09:41:08;8.70;;;7.90;;
1507;SDS011;745;48.586;10.032;2023-08-12T09:43:09;18.67;;;11.00;;
1507;SDS011;745;48.586;10.032;2023-08-12T09:45:11;9.47;;;7.50;;
1507;SDS011;745;48.586;10.032;2023-08-12T09:47:12;10.13;;;9.13;;
1507;SDS011;745;48.586;10.032;2023-08-12T09:49:12;26.50;;;13.10;;
1507;SDS011;745;48.586;10.032;2023-08-12T09:51:13;10.67;;;7.33;;
1507;SDS011;745;48.586;10.032;2023-08-12T09:53:13;15.73;;;9.00;;
1507;SDS011;745;48.586;10.032;2023-08-12T09:55:15;22.90;;;11.50;;
1507;SDS011;745;48.586;10.032;2023-08-12T09:57:17;85.03;;;29.97;;
1507;SDS011;745;48.586;10.032;2023-08-12T09:59:18;16.53;;;8.50;;
1507;SDS011;745;48.586;10.032;2023-08-12T10:01:20;7.30;;;6.23;;
1507;SDS011;745;48.586;10.032;2023-08-12T10:03:21;10.40;;;7.60;;
1507;SDS011;745;48.586;10.032;2023-08-12T10:05:27;6.87;;;6.27;;
1507;SDS011;745;48.586;10.032;2023-08-12T10:07:28;6.90;;;6.20;;
1507;SDS011;745;48.586;10.032;2023-08-12T10:09:28;7.80;;;5.73;;
1507;SDS011;745;48.586;10.032;2023-08-12T10:11:29;6.50;;;5.80;;
1507;SDS011;745;48.586;10.032;2023-08-12T10:13:29;5.97;;;5.47;;
1507;SDS011;745;48.586;10.032;2023-08-12T10:15:30;6.70;;;5.60;;
1507;SDS011;745;48.586;10.032;2023-08-12T10:17:30;5.77;;;5.17;;
1507;SDS011;745;48.586;10.032;2023-08-12T10:19:31;5.10;;;4.70;;
1507;SDS011;745;48.586;10.032;2023-08-12T10:21:32;4.73;;;4.23;;
1507;SDS011;745;48.586;10.032;2023-08-12T10:23:32;4.63;;;4.23;;
1507;SDS011;745;48.586;10.032;2023-08-12T10:25:33;5.60;;;4.47;;
1507;SDS011;745;48.586;10.032;2023-08-12T10:27:34;4.93;;;4.20;;
1507;SDS011;745;48.586;10.032;2023-08-12T10:29:35;5.37;;;4.50;;
1507;SDS011;745;48.586;10.032;2023-08-12T10:31:35;5.30;;;4.80;;
1507;SDS011;745;48.586;10.032;2023-08-12T10:33:36;4.80;;;4.33;;
1507;SDS011;745;48.586;10.032;2023-08-12T10:35:47;4.77;;;4.03;;
1507;SDS011;745;48.586;10.032;2023-08-12T10:37:49;4.13;;;3.83;;
1507;SDS011;745;48.586;10.032;2023-08-12T10:39:53;6.53;;;4.00;;
1507;SDS011;745;48.586;10.032;2023-08-12T10:41:55;4.90;;;4.10;;
1507;SDS011;745;48.586;10.032;2023-08-12T10:43:58;4.17;;;3.53;;
1507;SDS011;745;48.586;10.032;2023-08-12T10:46:01;4.00;;;3.60;;
1507;SDS011;745;48.586;10.032;2023-08-12T10:50:18;4.20;;;3.70;;
1507;SDS011;745;48.586;10.032;2023-08-12T10:52:29;4.00;;;3.67;;
1507;SDS011;745;48.586;10.032;2023-08-12T10:54:30;3.90;;;3.60;;
1507;SDS011;745;48.586;10.032;2023-08-12T10:56:30;3.70;;;3.40;;
1507;SDS011;745;48.586;10.032;2023-08-12T10:58:34;6.13;;;3.70;;
1507;SDS011;745;48.586;10.032;2023-08-12T11:00:55;4.23;;;3.83;;
1507;SDS011;745;48.586;10.032;2023-08-12T11:02:56;4.53;;;4.13;;
1507;SDS011;745;48.586;10.032;2023-08-12T11:05:07;4.33;;;3.93;;
1507;SDS011;745;48.586;10.032;2023-08-12T11:07:15;4.40;;;4.00;;
1507;SDS011;745;48.586;10.032;2023-08-12T11:09:16;5.10;;;4.60;;
1507;SDS011;745;48.586;10.032;2023-08-12T11:11:21;7.23;;;4.40;;
1507;SDS011;745;48.586;10.032;2023-08-12T11:13:26;5.00;;;4.50;;
1507;SDS011;745;48.586;10.032;2023-08-12T11:15:37;7.40;;;4.83;;
1507;SDS011;745;48.586;10.032;2023-08-12T11:17:39;5.83;;;5.23;;
1507;SDS011;745;48.586;10.032;2023-08-12T11:19:41;6.13;;;5.53;;
1507;SDS011;745;48.586;10.032;2023-08-12T11:21:42;5.90;;;5.40;;
1507;SDS011;745;48.586;10.032;2023-08-12T11:23:42;6.10;;;5.10;;
1507;SDS011;745;48.586;10.032;2023-08-12T11:25:43;5.73;;;5.23;;
1507;SDS011;745;48.586;10.032;2023-08-12T11:27:45;5.37;;;4.63;;
1507;SDS011;745;48.586;10.032;2023-08-12T11:29:46;5.07;;;4.60;;
1507;SDS011;745;48.586;10.032;2023-08-12T11:31:47;5.03;;;4.63;;
1507;SDS011;745;48.586;10.032;2023-08-12T11:33:48;5.53;;;4.50;;
1507;SDS011;745;48.586;10.032;2023-08-12T11:35:48;5.23;;;4.30;;
1507;SDS011;745;48.586;10.032;2023-08-12T11:37:50;6.10;;;4.80;;
1507;SDS011;745;48.586;10.032;2023-08-12T11:39:53;9.17;;;8.37;;
1507;SDS011;745;48.586;10.032;2023-08-12T11:41:53;5.00;;;4.50;;
1507;SDS011;745;48.586;10.032;2023-08-12T11:43:53;6.07;;;5.47;;
1507;SDS011;745;48.586;10.032;2023-08-12T11:45:54;8.13;;;7.43;;
1507;SDS011;745;48.586;10.032;2023-08-12T11:47:55;6.63;;;5.87;;
1507;SDS011;745;48.586;10.032;2023-08-12T11:49:56;5.80;;;4.60;;
1507;SDS011;745;48.586;10.032;2023-08-12T11:51:56;5.90;;;4.70;;
1507;SDS011;745;48.586;10.032;2023-08-12T11:53:56;4.80;;;4.40;;
1507;SDS011;745;48.586;10.032;2023-08-12T11:55:57;4.93;;;4.53;;
1507;SDS011;745;48.586;10.032;2023-08-12T11:57:57;5.00;;;4.40;;
1507;SDS011;745;48.586;10.032;2023-08-12T11:59:58;4.53;;;4.10;;
1507;SDS011;745;48.586;10.032;2023-08-12T12:02:01;7.03;;;4.20;;
1507;SDS011;745;48.586;10.032;2023-08-12T12:04:02;4.70;;;3.43;;
1507;SDS011;745;48.586;10.032;2023-08-12T12:06:03;4.90;;;4.00;;
1507;SDS011;745;48.586;10.032;2023-08-12T12:08:04;8.87;;;4.70;;
1507;SDS011;745;48.586;10.032;2023-08-12T12:10:05;5.37;;;4.33;;
1507;SDS011;745;48.586;10.032;2023-08-12T12:12:06;4.47;;;3.80;;
1507;SDS011;745;48.586;10.032;2023-08-12T12:14:10;4.87;;;3.73;;
1507;SDS011;745;48.586;10.032;2023-08-12T12:16:11;4.70;;;4.20;;
1507;SDS011;745;48.586;10.032;2023-08-12T12:18:11;4.90;;;4.27;;
1507;SDS011;745;48.586;10.032;2023-08-12T12:20:12;7.00;;;4.97;;
1507;SDS011;745;48.586;10.032;2023-08-12T12:22:14;4.67;;;4.10;;
1507;SDS011;745;48.586;10.032;2023-08-12T12:24:14;6.73;;;4.40;;
1507;SDS011;745;48.586;10.032;2023-08-12T12:26:15;5.03;;;4.53;;
1507;SDS011;745;48.586;10.032;2023-08-12T12:28:15;5.57;;;4.03;;
1507;SDS011;745;48.586;10.032;2023-08-12T12:30:16;7.53;;;4.40;;
1507;SDS011;745;48.586;10.032;2023-08-12T12:32:19;4.47;;;4.07;;
1507;SDS011;745;48.586;10.032;2023-08-12T12:34:20;5.63;;;4.50;;
1507;SDS011;745;48.586;10.032;2023-08-12T12:36:21;4.90;;;4.43;;